sensor_id;sensor_type;location;lat;lon;timestamp;pressure;altitude;pressure_sealevel;temperature;humidity
31761;BME280;18335;51.486;7.562;2023-03-25T00:01:38;98905.25;;;9.14;100.00
31761;BME280;18335;51.486;7.562;2023-03-25T00:04:05;98918.47;;;9.03;100.00
31761;BME280;18335;51.486;7.562;2023-03-25T00:06:32;98920.53;;;9.15;100.00
31761;BME280;18335;51.486;7.562;2023-03-25T00:08:59;98922.41;;;9.15;100.00
31761;BME280;18335;51.486;7.562;2023-03-25T00:11:28;98925.50;;;9.12;100.00
31761;BME280;18335;51.486;7.562;2023-03-25T00:13:55;98922.03;;;9.03;100.00
31761;BME280;18335;51.486;7.562;2023-03-25T00:16:22;98916.03;;;9.22;100.00
31761;BME280;18335;51.486;7.562;2023-03-25T00:18:49;98929.94;;;9.13;100.00
31761;BME280;18335;51.486;7.562;2023-03-25T00:21:16;98926.84;;;9.16;100.00
31761;BME280;18335;51.486;7.562;2023-03-25T00:23:43;98917.81;;;9.15;100.00
31761;BME280;18335;51.486;7.562;2023-03-25T00:26:10;98915.75;;;9.17;100.00
31761;BME280;18335;51.486;7.562;2023-03-25T00:28:38;98904.97;;;9.09;100.00
31761;BME280;18335;51.486;7.562;2023-03-25T00:31:07;98910.22;;;8.96;100.00
31761;BME280;18335;51.486;7.562;2023-03-25T00:33:34;98909.03;;;8.99;100.00
31761;BME280;18335;51.486;7.562;2023-03-25T00:36:02;98914.63;;;8.82;100.00
31761;BME280;18335;51.486;7.562;2023-03-25T00:38:31;98919.31;;;8.88;100.00
31761;BME280;18335;51.486;7.562;2023-03-25T00:41:14;98918.84;;;9.00;100.00
31761;BME280;18335;51.486;7.562;2023-03-25T00:43:44;98923.91;;;8.88;100.00
31761;BME280;18335;51.486;7.562;2023-03-25T00:46:10;98918.09;;;8.91;100.00
31761;BME280;18335;51.486;7.562;2023-03-25T00:48:37;98914.47;;;8.99;100.00
31761;BME280;18335;51.486;7.562;2023-03-25T00:51:04;98909.03;;;8.99;100.00
31761;BME280;18335;51.486;7.562;2023-03-25T00:53:35;98913.50;;;8.92;100.00
31761;BME280;18335;51.486;7.562;2023-03-25T00:56:02;98926.47;;;8.89;100.00
31761;BME280;18335;51.486;7.562;2023-03-25T00:58:29;98922.53;;;9.07;100.00
31761;BME280;18335;51.486;7.562;2023-03-25T01:00:57;98917.72;;;9.09;100.00
31761;BME280;18335;51.486;7.562;2023-03-25T01:03:24;98911.84;;;9.20;100.00
31761;BME280;18335;51.486;7.562;2023-03-25T01:05:53;98907.91;;;9.08;100.00
31761;BME280;18335;51.486;7.562;2023-03-25T01:08:20;98908.81;;;9.15;100.00
31761;BME280;18335;51.486;7.562;2023-03-25T01:10:51;98916.78;;;9.31;100.00
31761;BME280;18335;51.486;7.562;2023-03-25T01:13:18;98909.38;;;9.25;100.00
31761;BME280;18335;51.486;7.562;2023-03-25T01:15:45;98917.34;;;9.26;100.00
31761;BME280;18335;51.486;7.562;2023-03-25T01:18:13;98910.41;;;9.24;100.00
31761;BME280;18335;51.486;7.562;2023-03-25T01:20:40;98910.28;;;9.32;100.00
31761;BME280;18335;51.486;7.562;2023-03-25T01:23:07;98913.00;;;9.32;100.00
31761;BME280;18335;51.486;7.562;2023-03-25T01:25:34;98913.69;;;9.34;100.00
31761;BME280;18335;51.486;7.562;2023-03-25T01:28:01;98909.25;;;9.33;100.00
31761;BME280;18335;51.486;7.562;2023-03-25T01:30:28;98912.56;;;9.28;100.00
31761;BME280;18335;51.486;7.562;2023-03-25T01:32:55;98911.22;;;9.39;100.00
31761;BME280;18335;51.486;7.562;2023-03-25T01:35:23;98911.50;;;9.29;100.00
31761;BME280;18335;51.486;7.562;2023-03-25T01:37:50;98900.53;;;9.23;100.00
31761;BME280;18335;51.486;7.562;2023-03-25T01:40:20;98902.81;;;9.19;100.00
31761;BME280;18335;51.486;7.562;2023-03-25T01:42:47;98908.41;;;9.32;100.00
31761;BME280;18335;51.486;7.562;2023-03-25T01:45:20;98898.09;;;9.28;100.00
31761;BME280;18335;51.486;7.562;2023-03-25T01:47:49;98891.16;;;9.25;100.00
31761;BME280;18335;51.486;7.562;2023-03-25T01:50:18;98896.41;;;9.27;100.00
31761;BME280;18335;51.486;7.562;2023-03-25T01:52:50;98892.19;;;9.24;100.00
31761;BME280;18335;51.486;7.562;2023-03-25T01:55:17;98885.72;;;9.25;100.00
31761;BME280;18335;51.486;7.562;2023-03-25T01:57:46;98893.31;;;9.15;100.00
31761;BME280;18335;51.486;7.562;2023-03-25T02:00:14;98891.34;;;9.24;100.00
31761;BME280;18335;51.486;7.562;2023-03-25T02:02:42;98877.09;;;9.22;100.00
31761;BME280;18335;51.486;7.562;2023-03-25T02:05:15;98890.88;;;9.20;100.00
31761;BME280;18335;51.486;7.562;2023-03-25T02:07:45;98899.34;;;9.25;100.00
31761;BME280;18335;51.486;7.562;2023-03-25T02:10:16;98896.16;;;9.22;100.00
31761;BME280;18335;51.486;7.562;2023-03-25T02:12:42;98886.91;;;9.23;100.00
31761;BME280;18335;51.486;7.562;2023-03-25T02:15:14;98886.91;;;9.23;100.00
31761;BME280;18335;51.486;7.562;2023-03-25T02:17:55;98887.50;;;9.18;100.00
31761;BME280;18335;51.486;7.562;2023-03-25T02:20:51;98883.00;;;9.25;100.00
31761;BME280;18335;51.486;7.562;2023-03-25T02:29:56;98888.44;;;9.25;100.00
31761;BME280;18335;51.486;7.562;2023-03-25T02:32:39;98880.47;;;9.24;100.00
31761;BME280;18335;51.486;7.562;2023-03-25T02:35:25;98900.53;;;9.37;100.00
31761;BME280;18335;51.486;7.562;2023-03-25T02:38:05;98893.22;;;9.23;100.00
31761;BME280;18335;51.486;7.562;2023-03-25T02:40:39;98893.50;;;9.28;100.00
31761;BME280;18335;51.486;7.562;2023-03-25T02:43:12;98898.28;;;9.26;100.00
31761;BME280;18335;51.486;7.562;2023-03-25T02:45:46;98898.88;;;9.22;100.00
31761;BME280;18335;51.486;7.562;2023-03-25T02:48:20;98908.81;;;9.15;100.00
31761;BME280;18335;51.486;7.562;2023-03-25T02:50:50;98901.69;;;9.28;100.00
31761;BME280;18335;51.486;7.562;2023-03-25T02:53:25;98894.06;;;9.24;100.00
31761;BME280;18335;51.486;7.562;2023-03-25T02:55:55;98895.09;;;9.23;100.00
31761;BME280;18335;51.486;7.562;2023-03-25T02:58:24;98887.50;;;9.18;100.00
31761;BME280;18335;51.486;7.562;2023-03-25T03:00:52;98898.47;;;9.25;100.00
31761;BME280;18335;51.486;7.562;2023-03-25T03:03:23;98892.09;;;9.18;100.00
31761;BME280;18335;51.486;7.562;2023-03-25T03:05:54;98897.66;;;9.10;100.00
31761;BME280;18335;51.486;7.562;2023-03-25T03:08:33;98881.34;;;9.10;100.00
31761;BME280;18335;51.486;7.562;2023-03-25T03:11:07;98881.59;;;9.15;100.00
31761;BME280;18335;51.486;7.562;2023-03-25T03:13:50;98882.34;;;9.09;100.00
31761;BME280;18335;51.486;7.562;2023-03-25T03:16:29;98885.28;;;9.07;100.00
31761;BME280;18335;51.486;7.562;2023-03-25T03:19:04;98878.03;;;9.14;100.00
31761;BME280;18335;51.486;7.562;2023-03-25T03:21:38;98876.53;;;9.12;100.00
31761;BME280;18335;51.486;7.562;2023-03-25T03:24:11;98874.31;;;9.01;100.00
31761;BME280;18335;51.486;7.562;2023-03-25T03:26:46;98880.75;;;9.00;100.00
31761;BME280;18335;51.486;7.562;2023-03-25T03:29:16;98875.25;;;9.08;100.00
31761;BME280;18335;51.486;7.562;2023-03-25T03:31:47;98889.50;;;9.10;100.00
31761;BME280;18335;51.486;7.562;2023-03-25T03:34:20;98873.66;;;8.99;100.00
31761;BME280;18335;51.486;7.562;2023-03-25T03:36:53;98879.38;;;9.04;100.00
31761;BME280;18335;51.486;7.562;2023-03-25T03:39:25;98887.16;;;9.07;100.00
31761;BME280;18335;51.486;7.562;2023-03-25T03:41:57;98879.34;;;9.18;100.00
31761;BME280;18335;51.486;7.562;2023-03-25T03:44:29;98869.88;;;9.00;100.00
31761;BME280;18335;51.486;7.562;2023-03-25T03:46:59;98876.66;;;9.04;100.00
31761;BME280;18335;51.486;7.562;2023-03-25T03:49:28;98876.91;;;9.09;100.00
31761;BME280;18335;51.486;7.562;2023-03-25T03:52:02;98886.03;;;9.01;100.00
31761;BME280;18335;51.486;7.562;2023-03-25T03:54:37;98892.69;;;8.99;100.00
31761;BME280;18335;51.486;7.562;2023-03-25T03:57:09;98894.28;;;8.93;100.00
31761;BME280;18335;51.486;7.562;2023-03-25T03:59:41;98907.44;;;8.89;100.00
31761;BME280;18335;51.486;7.562;2023-03-25T04:02:15;98888.19;;;8.76;100.00
31761;BME280;18335;51.486;7.562;2023-03-25T04:04:43;98898.41;;;8.74;100.00
31761;BME280;18335;51.486;7.562;2023-03-25T04:07:13;98890.44;;;8.87;100.00
31761;BME280;18335;51.486;7.562;2023-03-25T04:09:50;98886.31;;;8.92;100.00
31761;BME280;18335;51.486;7.562;2023-03-25T04:12:24;98901.31;;;8.87;100.00
31761;BME280;18335;51.486;7.562;2023-03-25T04:14:52;98902.53;;;8.85;100.00
31761;BME280;18335;51.486;7.562;2023-03-25T04:17:19;98892.41;;;8.94;100.00
31761;BME280;18335;51.486;7.562;2023-03-25T04:19:46;98892.66;;;8.69;100.00
31761;BME280;18335;51.486;7.562;2023-03-25T04:22:15;98894.09;;;8.95;100.00
31761;BME280;18335;51.486;7.562;2023-03-25T04:24:44;98897.34;;;8.75;100.00
31761;BME280;18335;51.486;7.562;2023-03-25T04:27:14;98896.63;;;8.81;100.00
31761;BME280;18335;51.486;7.562;2023-03-25T04:29:41;98896.91;;;8.72;100.00
31761;BME280;18335;51.486;7.562;2023-03-25T04:32:09;98882.09;;;8.74;100.00
31761;BME280;18335;51.486;7.562;2023-03-25T04:34:36;98891.25;;;8.59;100.00
31761;BME280;18335;51.486;7.562;2023-03-25T04:37:03;98885.34;;;8.55;100.00
31761;BME280;18335;51.486;7.562;2023-03-25T04:39:30;98897.94;;;8.71;100.00
31761;BME280;18335;51.486;7.562;2023-03-25T04:41:58;98886.69;;;8.74;100.00
31761;BME280;18335;51.486;7.562;2023-03-25T04:44:26;98878.53;;;8.74;100.00
31761;BME280;18335;51.486;7.562;2023-03-25T04:46:53;98901.19;;;8.66;100.00
31761;BME280;18335;51.486;7.562;2023-03-25T04:49:22;98892.28;;;8.72;100.00
31761;BME280;18335;51.486;7.562;2023-03-25T04:51:51;98905.72;;;8.74;100.00
31761;BME280;18335;51.486;7.562;2023-03-25T04:54:18;98901.13;;;8.74;100.00
31761;BME280;18335;51.486;7.562;2023-03-25T04:56:45;98886.31;;;8.77;100.00
31761;BME280;18335;51.486;7.562;2023-03-25T04:59:15;98888.75;;;8.86;100.00
31761;BME280;18335;51.486;7.562;2023-03-25T05:01:43;98889.41;;;8.74;100.00
31761;BME280;18335;51.486;7.562;2023-03-25T05:04:11;98881.78;;;8.69;100.00
31761;BME280;18335;51.486;7.562;2023-03-25T05:06:42;98878.63;;;8.80;100.00
31761;BME280;18335;51.486;7.562;2023-03-25T05:09:12;98877.94;;;8.78;100.00
31761;BME280;18335;51.486;7.562;2023-03-25T05:11:40;98882.00;;;8.82;100.00
31761;BME280;18335;51.486;7.562;2023-03-25T05:14:08;98881.25;;;8.88;100.00
31761;BME280;18335;51.486;7.562;2023-03-25T05:16:36;98870.47;;;8.80;100.00
31761;BME280;18335;51.486;7.562;2023-03-25T05:19:03;98873.19;;;8.80;100.00
31761;BME280;18335;51.486;7.562;2023-03-25T05:21:31;98868.13;;;8.77;100.00
31761;BME280;18335;51.486;7.562;2023-03-25T05:24:00;98872.63;;;8.70;100.00
31761;BME280;18335;51.486;7.562;2023-03-25T05:26:27;98883.88;;;8.67;100.00
31761;BME280;18335;51.486;7.562;2023-03-25T05:28:59;98879.38;;;8.74;100.00
31761;BME280;18335;51.486;7.562;2023-03-25T05:31:26;98889.50;;;8.80;100.00
31761;BME280;18335;51.486;7.562;2023-03-25T05:33:54;98873.94;;;8.74;100.00
31761;BME280;18335;51.486;7.562;2023-03-25T05:36:21;98884.81;;;8.74;100.00
31761;BME280;18335;51.486;7.562;2023-03-25T05:38:49;98875.53;;;8.83;100.00
31761;BME280;18335;51.486;7.562;2023-03-25T05:41:19;98874.78;;;8.75;100.00
31761;BME280;18335;51.486;7.562;2023-03-25T05:43:47;98891.75;;;8.77;100.00
31761;BME280;18335;51.486;7.562;2023-03-25T05:46:16;98878.25;;;8.83;100.00
31761;BME280;18335;51.486;7.562;2023-03-25T05:48:43;98894.75;;;8.82;100.00
31761;BME280;18335;51.486;7.562;2023-03-25T05:51:13;98897.66;;;8.80;100.00
31761;BME280;18335;51.486;7.562;2023-03-25T05:53:41;98903.09;;;8.66;100.00
31761;BME280;18335;51.486;7.562;2023-03-25T05:56:09;98894.66;;;8.75;100.00
31761;BME280;18335;51.486;7.562;2023-03-25T05:58:36;98893.25;;;8.65;100.00
31761;BME280;18335;51.486;7.562;2023-03-25T06:01:03;98898.03;;;8.63;100.00
31761;BME280;18335;51.486;7.562;2023-03-25T06:03:30;98902.31;;;8.57;100.00
31761;BME280;18335;51.486;7.562;2023-03-25T06:05:58;98896.44;;;8.68;100.00
31761;BME280;18335;51.486;7.562;2023-03-25T06:08:27;98903.19;;;8.72;100.00
31761;BME280;18335;51.486;7.562;2023-03-25T06:10:54;98897.34;;;8.75;100.00
31761;BME280;18335;51.486;7.562;2023-03-25T06:13:25;98901.50;;;8.71;100.00
31761;BME280;18335;51.486;7.562;2023-03-25T06:15:52;98896.81;;;8.65;100.00
31761;BME280;18335;51.486;7.562;2023-03-25T06:18:21;98898.53;;;8.81;100.00
31761;BME280;18335;51.486;7.562;2023-03-25T06:20:50;98893.81;;;8.89;100.00
31761;BME280;18335;51.486;7.562;2023-03-25T06:23:18;98903.19;;;8.72;100.00
31761;BME280;18335;51.486;7.562;2023-03-25T06:25:48;98892.28;;;8.87;100.00
31761;BME280;18335;51.486;7.562;2023-03-25T06:28:15;98902.91;;;8.82;100.00
31761;BME280;18335;51.486;7.562;2023-03-25T06:30:43;98898.69;;;8.94;100.00
31761;BME280;18335;51.486;7.562;2023-03-25T06:33:10;98906.31;;;8.99;100.00
31761;BME280;18335;51.486;7.562;2023-03-25T06:35:38;98911.06;;;8.97;100.00
31761;BME280;18335;51.486;7.562;2023-03-25T06:38:06;98893.53;;;8.84;100.00
31761;BME280;18335;51.486;7.562;2023-03-25T06:40:51;98900.19;;;8.97;100.00
31761;BME280;18335;51.486;7.562;2023-03-25T06:43:18;98902.16;;;8.88;100.00
31761;BME280;18335;51.486;7.562;2023-03-25T06:46:14;98907.69;;;8.95;100.00
31761;BME280;18335;51.486;7.562;2023-03-25T06:48:59;98899.44;;;9.03;100.00
31761;BME280;18335;51.486;7.562;2023-03-25T06:51:25;98905.81;;;9.10;100.00
31761;BME280;18335;51.486;7.562;2023-03-25T06:53:52;98904.50;;;9.06;100.00
31761;BME280;18335;51.486;7.562;2023-03-25T06:56:20;98900.16;;;9.11;100.00
31761;BME280;18335;51.486;7.562;2023-03-25T06:58:47;98890.06;;;9.20;100.00
31761;BME280;18335;51.486;7.562;2023-03-25T07:01:14;98909.09;;;9.34;100.00
31761;BME280;18335;51.486;7.562;2023-03-25T07:03:41;98912.53;;;9.43;100.00
31761;BME280;18335;51.486;7.562;2023-03-25T07:06:13;98909.13;;;9.41;100.00
31761;BME280;18335;51.486;7.562;2023-03-25T07:08:41;98912.59;;;9.14;100.00
31761;BME280;18335;51.486;7.562;2023-03-25T07:11:09;98900.53;;;9.23;100.00
31761;BME280;18335;51.486;7.562;2023-03-25T07:13:39;98914.81;;;9.25;100.00
31761;BME280;18335;51.486;7.562;2023-03-25T07:16:07;98925.13;;;9.15;100.00
31761;BME280;18335;51.486;7.562;2023-03-25T07:18:34;98934.06;;;9.09;100.00
31761;BME280;18335;51.486;7.562;2023-03-25T07:21:01;98938.75;;;9.00;100.00
31761;BME280;18335;51.486;7.562;2023-03-25T07:23:29;98932.34;;;8.93;100.00
31761;BME280;18335;51.486;7.562;2023-03-25T07:25:56;98936.75;;;8.79;100.00
31761;BME280;18335;51.486;7.562;2023-03-25T07:28:23;98942.34;;;8.63;100.00
31761;BME280;18335;51.486;7.562;2023-03-25T07:30:51;98940.31;;;8.65;100.00
31761;BME280;18335;51.486;7.562;2023-03-25T07:33:18;98933.78;;;8.89;100.00
31761;BME280;18335;51.486;7.562;2023-03-25T07:35:45;98931.97;;;8.81;100.00
31761;BME280;18335;51.486;7.562;2023-03-25T07:38:12;98928.97;;;8.91;100.00
31761;BME280;18335;51.486;7.562;2023-03-25T07:40:39;98936.13;;;9.07;100.00
31761;BME280;18335;51.486;7.562;2023-03-25T07:43:06;98945.88;;;9.16;100.00
31761;BME280;18335;51.486;7.562;2023-03-25T07:45:40;98940.16;;;9.11;100.00
31761;BME280;18335;51.486;7.562;2023-03-25T07:48:08;98934.50;;;9.27;100.00
31761;BME280;18335;51.486;7.562;2023-03-25T07:50:39;98942.19;;;9.38;100.00
31761;BME280;18335;51.486;7.562;2023-03-25T07:53:06;98935.91;;;9.52;100.00
31761;BME280;18335;51.486;7.562;2023-03-25T07:55:33;98937.22;;;9.77;100.00
31761;BME280;18335;51.486;7.562;2023-03-25T07:58:00;98935.81;;;9.81;100.00
31761;BME280;18335;51.486;7.562;2023-03-25T08:00:27;98936.84;;;9.80;100.00
31761;BME280;18335;51.486;7.562;2023-03-25T08:02:54;98925.84;;;10.10;100.00
31761;BME280;18335;51.486;7.562;2023-03-25T08:05:23;98935.22;;;9.86;100.00
31761;BME280;18335;51.486;7.562;2023-03-25T08:07:50;98941.00;;;9.97;100.00
31761;BME280;18335;51.486;7.562;2023-03-25T08:10:18;98951.75;;;9.63;100.00
31761;BME280;18335;51.486;7.562;2023-03-25T08:12:44;98955.41;;;9.70;100.00
31761;BME280;18335;51.486;7.562;2023-03-25T08:15:12;98950.72;;;9.64;100.00
31761;BME280;18335;51.486;7.562;2023-03-25T08:17:39;98948.75;;;9.58;100.00
31761;BME280;18335;51.486;7.562;2023-03-25T08:20:06;98945.06;;;9.66;100.00
31761;BME280;18335;51.486;7.562;2023-03-25T08:22:36;98962.44;;;9.65;100.00
31761;BME280;18335;51.486;7.562;2023-03-25T08:25:03;98953.09;;;9.53;100.00
31761;BME280;18335;51.486;7.562;2023-03-25T08:27:30;98956.16;;;9.64;100.00
31761;BME280;18335;51.486;7.562;2023-03-25T08:29:57;98957.75;;;9.73;100.00
31761;BME280;18335;51.486;7.562;2023-03-25T08:32:26;98959.09;;;9.48;100.00
31761;BME280;18335;51.486;7.562;2023-03-25T08:34:53;98969.78;;;9.64;100.00
31761;BME280;18335;51.486;7.562;2023-03-25T08:37:20;98963.19;;;9.73;100.00
31761;BME280;18335;51.486;7.562;2023-03-25T08:39:49;98964.88;;;9.60;100.00
31761;BME280;18335;51.486;7.562;2023-03-25T08:42:16;98950.22;;;9.75;100.00
31761;BME280;18335;51.486;7.562;2023-03-25T08:44:43;98957.56;;;9.60;100.00
31761;BME280;18335;51.486;7.562;2023-03-25T08:47:11;98970.78;;;9.78;100.00
31761;BME280;18335;51.486;7.562;2023-03-25T08:49:37;98954.38;;;9.92;100.00
31761;BME280;18335;51.486;7.562;2023-03-25T08:52:04;98967.78;;;10.09;100.00
31761;BME280;18335;51.486;7.562;2023-03-25T08:54:33;98971.78;;;10.13;100.00
31761;BME280;18335;51.486;7.562;2023-03-25T08:57:01;98971.31;;;10.24;100.00
31761;BME280;18335;51.486;7.562;2023-03-25T08:59:28;98968.84;;;10.50;100.00
31761;BME280;18335;51.486;7.562;2023-03-25T09:01:55;98957.53;;;10.53;100.00
31761;BME280;18335;51.486;7.562;2023-03-25T09:04:21;98968.06;;;10.35;100.00
31761;BME280;18335;51.486;7.562;2023-03-25T09:06:48;98969.63;;;10.23;100.00
31761;BME280;18335;51.486;7.562;2023-03-25T09:09:15;98957.03;;;10.22;100.00
31761;BME280;18335;51.486;7.562;2023-03-25T09:11:42;98955.47;;;10.34;100.00
31761;BME280;18335;51.486;7.562;2023-03-25T09:14:11;98947.81;;;10.23;100.00
31761;BME280;18335;51.486;7.562;2023-03-25T09:16:37;98961.59;;;10.15;100.00
31761;BME280;18335;51.486;7.562;2023-03-25T09:19:04;98957.94;;;10.29;100.00
31761;BME280;18335;51.486;7.562;2023-03-25T09:21:31;98954.44;;;10.35;100.00
31761;BME280;18335;51.486;7.562;2023-03-25T09:23:57;98964.03;;;10.31;100.00
31761;BME280;18335;51.486;7.562;2023-03-25T09:26:24;98956.50;;;10.12;100.00
31761;BME280;18335;51.486;7.562;2023-03-25T09:28:51;98955.47;;;10.34;100.00
31761;BME280;18335;51.486;7.562;2023-03-25T09:31:21;98940.41;;;10.38;100.00
31761;BME280;18335;51.486;7.562;2023-03-25T09:33:48;98951.06;;;10.54;100.00
31761;BME280;18335;51.486;7.562;2023-03-25T09:36:14;98946.25;;;10.35;100.00
31761;BME280;18335;51.486;7.562;2023-03-25T09:38:41;98956.63;;;10.25;100.00
31761;BME280;18335;51.486;7.562;2023-03-25T09:41:22;98951.94;;;10.61;100.00
31761;BME280;18335;51.486;7.562;2023-03-25T09:43:59;98956.44;;;10.47;100.00
31761;BME280;18335;51.486;7.562;2023-03-25T09:46:31;98950.41;;;11.07;100.00
31761;BME280;18335;51.486;7.562;2023-03-25T09:48:58;98947.13;;;10.91;100.00
31761;BME280;18335;51.486;7.562;2023-03-25T09:51:28;98942.75;;;10.90;100.00
31761;BME280;18335;51.486;7.562;2023-03-25T09:53:59;98952.81;;;11.24;100.00
31761;BME280;18335;51.486;7.562;2023-03-25T09:56:32;98955.41;;;11.32;100.00
31761;BME280;18335;51.486;7.562;2023-03-25T09:59:03;98948.47;;;11.70;100.00
31761;BME280;18335;51.486;7.562;2023-03-25T10:01:37;98959.84;;;11.74;100.00
31761;BME280;18335;51.486;7.562;2023-03-25T10:04:37;98958.81;;;11.40;100.00
31761;BME280;18335;51.486;7.562;2023-03-25T10:07:14;98963.88;;;11.50;100.00
31761;BME280;18335;51.486;7.562;2023-03-25T10:09:50;98965.16;;;11.54;100.00
31761;BME280;18335;51.486;7.562;2023-03-25T10:12:29;98962.25;;;10.87;100.00
31761;BME280;18335;51.486;7.562;2023-03-25T10:15:04;98955.59;;;11.02;100.00
31761;BME280;18335;51.486;7.562;2023-03-25T10:17:38;98953.72;;;10.75;100.00
31761;BME280;18335;51.486;7.562;2023-03-25T10:20:15;98947.06;;;11.46;100.00
31761;BME280;18335;51.486;7.562;2023-03-25T10:22:57;98958.94;;;11.32;100.00
31761;BME280;18335;51.486;7.562;2023-03-25T10:25:30;98952.88;;;11.71;100.00
31761;BME280;18335;51.486;7.562;2023-03-25T10:27:59;98939.44;;;11.35;100.00
31761;BME280;18335;51.486;7.562;2023-03-25T10:30:31;98966.47;;;11.24;100.00
31761;BME280;18335;51.486;7.562;2023-03-25T10:33:04;98951.06;;;11.91;100.00
31761;BME280;18335;51.486;7.562;2023-03-25T10:35:38;98947.84;;;11.75;100.00
31761;BME280;18335;51.486;7.562;2023-03-25T10:38:11;98940.13;;;11.91;100.00
31761;BME280;18335;51.486;7.562;2023-03-25T10:40:40;98946.22;;;11.93;100.00
31761;BME280;18335;51.486;7.562;2023-03-25T10:43:13;98952.38;;;12.21;100.00
31761;BME280;18335;51.486;7.562;2023-03-25T10:45:42;98952.63;;;12.27;100.00
31761;BME280;18335;51.486;7.562;2023-03-25T10:48:15;98943.94;;;12.03;100.00
31761;BME280;18335;51.486;7.562;2023-03-25T10:50:45;98959.22;;;11.78;100.00
31761;BME280;18335;51.486;7.562;2023-03-25T10:53:19;98956.25;;;11.73;100.00
31761;BME280;18335;51.486;7.562;2023-03-25T10:55:50;98956.81;;;11.68;100.00
31761;BME280;18335;51.486;7.562;2023-03-25T10:58:21;98953.78;;;11.50;100.00
31761;BME280;18335;51.486;7.562;2023-03-25T11:00:48;98953.34;;;11.47;100.00
31761;BME280;18335;51.486;7.562;2023-03-25T11:03:19;98970.41;;;11.49;100.00
31761;BME280;18335;51.486;7.562;2023-03-25T11:05:47;98962.16;;;11.83;100.00
31761;BME280;18335;51.486;7.562;2023-03-25T11:08:15;98972.75;;;11.99;100.00
31761;BME280;18335;51.486;7.562;2023-03-25T11:10:47;98964.84;;;11.70;100.00
31761;BME280;18335;51.486;7.562;2023-03-25T11:13:16;98964.47;;;11.86;100.00
31761;BME280;18335;51.486;7.562;2023-03-25T11:15:46;98964.44;;;12.47;100.00
31761;BME280;18335;51.486;7.562;2023-03-25T11:18:20;98965.72;;;12.51;100.00
31761;BME280;18335;51.486;7.562;2023-03-25T11:20:49;98960.25;;;12.90;100.00
31761;BME280;18335;51.486;7.562;2023-03-25T11:23:22;98959.63;;;12.75;100.00
31761;BME280;18335;51.486;7.562;2023-03-25T11:25:52;98964.22;;;12.88;100.00
31761;BME280;18335;51.486;7.562;2023-03-25T11:28:23;98966.53;;;12.58;100.00
31761;BME280;18335;51.486;7.562;2023-03-25T11:31:09;98967.31;;;12.12;100.00
31761;BME280;18335;51.486;7.562;2023-03-25T11:33:38;98972.28;;;11.89;100.00
31761;BME280;18335;51.486;7.562;2023-03-25T11:36:12;98982.53;;;11.81;100.00
31761;BME280;18335;51.486;7.562;2023-03-25T11:38:39;98982.22;;;12.03;100.00
31761;BME280;18335;51.486;7.562;2023-03-25T11:41:06;98993.03;;;11.71;100.00
31761;BME280;18335;51.486;7.562;2023-03-25T11:43:34;99002.31;;;11.83;100.00
31761;BME280;18335;51.486;7.562;2023-03-25T11:46:09;98980.84;;;11.39;100.00
31761;BME280;18335;51.486;7.562;2023-03-25T11:48:41;98982.31;;;11.35;100.00
31761;BME280;18335;51.486;7.562;2023-03-25T11:51:12;98985.16;;;11.27;100.00
31761;BME280;18335;51.486;7.562;2023-03-25T11:53:43;98983.56;;;11.39;100.00
31761;BME280;18335;51.486;7.562;2023-03-25T11:56:14;98971.06;;;11.57;100.00
31761;BME280;18335;51.486;7.562;2023-03-25T11:58:45;98959.00;;;11.39;100.00
31761;BME280;18335;51.486;7.562;2023-03-25T12:01:20;98969.34;;;11.91;100.00
31761;BME280;18335;51.486;7.562;2023-03-25T12:03:51;98970.00;;;11.99;100.00
31761;BME280;18335;51.486;7.562;2023-03-25T12:06:19;98980.75;;;12.07;100.00
31761;BME280;18335;51.486;7.562;2023-03-25T12:08:51;98974.63;;;11.99;100.00
31761;BME280;18335;51.486;7.562;2023-03-25T12:11:22;98988.66;;;11.89;100.00
31761;BME280;18335;51.486;7.562;2023-03-25T12:14:02;99003.88;;;11.64;100.00
31761;BME280;18335;51.486;7.562;2023-03-25T12:16:41;98983.97;;;11.36;100.00
31761;BME280;18335;51.486;7.562;2023-03-25T12:19:17;98982.22;;;11.22;100.00
31761;BME280;18335;51.486;7.562;2023-03-25T12:21:58;98975.44;;;11.18;100.00
31761;BME280;18335;51.486;7.562;2023-03-25T12:24:40;98972.28;;;11.89;100.00
31761;BME280;18335;51.486;7.562;2023-03-25T12:27:21;98973.84;;;12.25;100.00
31761;BME280;18335;51.486;7.562;2023-03-25T12:29:58;98976.47;;;11.92;100.00
31761;BME280;18335;51.486;7.562;2023-03-25T12:32:34;98981.31;;;11.90;100.00
31761;BME280;18335;51.486;7.562;2023-03-25T12:35:18;98979.53;;;11.69;100.00
31761;BME280;18335;51.486;7.562;2023-03-25T12:38:00;98964.03;;;11.76;100.00
31761;BME280;18335;51.486;7.562;2023-03-25T12:40:41;98982.09;;;11.77;100.00
31761;BME280;18335;51.486;7.562;2023-03-25T12:43:20;98989.03;;;11.73;100.00
31761;BME280;18335;51.486;7.562;2023-03-25T12:45:57;98981.53;;;11.95;100.00
31761;BME280;18335;51.486;7.562;2023-03-25T12:48:45;98966.53;;;12.38;100.00
31761;BME280;18335;51.486;7.562;2023-03-25T12:51:24;98961.91;;;12.65;100.00
31761;BME280;18335;51.486;7.562;2023-03-25T12:54:03;98954.13;;;12.36;100.00
31761;BME280;18335;51.486;7.562;2023-03-25T12:56:42;98961.81;;;11.99;100.00
31761;BME280;18335;51.486;7.562;2023-03-25T12:59:22;98948.84;;;12.34;100.00
31761;BME280;18335;51.486;7.562;2023-03-25T13:02:00;98941.94;;;12.51;100.00
31761;BME280;18335;51.486;7.562;2023-03-25T13:04:42;98946.97;;;12.48;100.00
31761;BME280;18335;51.486;7.562;2023-03-25T13:07:18;98952.63;;;12.33;100.00
31761;BME280;18335;51.486;7.562;2023-03-25T13:09:53;98953.66;;;12.26;100.00
31761;BME280;18335;51.486;7.562;2023-03-25T13:12:29;98954.50;;;12.19;100.00
31761;BME280;18335;51.486;7.562;2023-03-25T13:15:03;98949.06;;;12.46;100.00
31761;BME280;18335;51.486;7.562;2023-03-25T13:17:35;98950.78;;;12.60;100.00
31761;BME280;18335;51.486;7.562;2023-03-25T13:20:05;98948.84;;;12.93;100.00
31761;BME280;18335;51.486;7.562;2023-03-25T13:22:39;98936.00;;;12.94;100.00